KCDR/CDR METAR and TAF weather

Enter ICAO airport designator
Station Type Date Time Source
KCDR METAR 2020/01/18 20:53 UTC NOAA

KCDR 182053Z AUTO 32009KT 10SM CLR 01/M11 A3026 RMK AO2 SLP294 T00111106 56014


Station Type Date Time Source
KCDR Decoded METAR 2020/01/18 20:53 UTC NOAA

CHADRON MUNICIPAL AIRPORT, NE, United States (KCDR) 42-50N 103-06W 1010M
Jan 18, 2020 - 03:53 PM EST / 2020.01.18 2053 UTC
Wind: from the NW (320 degrees) at 10 MPH (9 KT):0
Visibility: 10 mile(s):0
Sky conditions: clear
Temperature: 34.0 F (1.1 C)
Windchill: 26 F (-3 C):1
Dew Point: 12.9 F (-10.6 C)
Relative Humidity: 41%
Pressure (altimeter): 30.26 in. Hg (1024 hPa)
Pressure tendency: 0.04 inches (1.4 hPa) lower than three hours ago
ob: KCDR 182053Z AUTO 32009KT 10SM CLR 01/M11 A3026 RMK AO2 SLP294 T00111106 56014
cycle: 21

Station Type Date Time Source
KCDR TAF 2020/01/18 18:22 UTC NOAA

TAF KCDR 181720Z 1818/1918 31011KT P6SM SCT200
FM190200 VRB05KT P6SM SCT150

Example: see airport list